createdAt,value
2023-04-01T00:01:39.992Z,14.25
2023-04-01T00:04:09.426Z,14.21
2023-04-01T00:06:38.692Z,14.15
2023-04-01T00:09:08.066Z,14.14
2023-04-01T00:11:37.358Z,14.11
2023-04-01T00:14:06.740Z,14.13
2023-04-01T00:16:36.918Z,14.12
2023-04-01T00:19:06.548Z,14.08
2023-04-01T00:21:36.091Z,14.08
2023-04-01T00:24:05.448Z,14.08
2023-04-01T00:26:34.463Z,14.07
2023-04-01T00:29:03.902Z,14.06
2023-04-01T00:31:33.164Z,14.04
2023-04-01T00:34:01.889Z,14.07
2023-04-01T00:36:31.070Z,14.05
2023-04-01T00:39:00.954Z,14.05
2023-04-01T00:41:29.853Z,14.00
2023-04-01T00:44:19.658Z,13.94
2023-04-01T00:46:49.056Z,13.84
2023-04-01T00:49:20.764Z,13.80
2023-04-01T00:51:53.348Z,13.77
2023-04-01T00:54:24.065Z,13.76
2023-04-01T00:56:57.513Z,13.79
2023-04-01T00:59:30.813Z,13.80
2023-04-01T01:02:00.654Z,13.83
2023-04-01T01:04:33.923Z,13.88
2023-04-01T01:07:33.908Z,13.80
2023-04-01T01:10:10.636Z,13.74
2023-04-01T01:13:10.122Z,13.76
2023-04-01T01:15:39.517Z,13.69
2023-04-01T01:18:18.335Z,13.73
2023-04-01T01:21:23.685Z,13.74
2023-04-01T01:24:23.848Z,13.69
2023-04-01T01:26:55.368Z,13.65
2023-04-01T01:29:58.201Z,13.64
2023-04-01T01:32:54.197Z,13.59
2023-04-01T01:35:45.412Z,13.60
2023-04-01T01:38:28.316Z,13.60
2023-04-01T01:40:59.355Z,13.59
2023-04-01T01:43:42.223Z,13.61
2023-04-01T01:46:16.209Z,13.64
2023-04-01T01:48:47.649Z,13.72
2023-04-01T01:51:17.073Z,13.76
2023-04-01T01:53:46.191Z,13.78
2023-04-01T01:56:17.699Z,13.86
2023-04-01T01:58:51.725Z,13.91
2023-04-01T02:01:29.858Z,13.91
2023-04-01T02:04:00.424Z,13.88
2023-04-01T02:06:34.170Z,13.87
2023-04-01T02:09:09.317Z,13.87
2023-04-01T02:11:41.482Z,13.85
2023-04-01T02:14:19.600Z,13.80
2023-04-01T02:17:08.784Z,13.82
2023-04-01T02:20:00.647Z,13.81
2023-04-01T02:22:34.381Z,13.77
2023-04-01T02:25:08.926Z,13.75
2023-04-01T02:27:39.259Z,13.77
2023-04-01T02:30:08.912Z,13.83
2023-04-01T02:32:39.831Z,13.88
2023-04-01T02:35:11.827Z,13.92
2023-04-01T02:37:45.140Z,13.93
2023-04-01T02:40:16.104Z,13.92
2023-04-01T02:42:45.271Z,13.78
2023-04-01T02:45:15.066Z,13.55
2023-04-01T02:47:43.928Z,13.43
2023-04-01T02:50:13.216Z,13.43
2023-04-01T02:52:42.478Z,13.45
2023-04-01T02:55:11.775Z,13.46
2023-04-01T02:57:41.005Z,13.44
2023-04-01T03:00:13.150Z,13.41
2023-04-01T03:02:42.947Z,13.42
2023-04-01T03:05:12.011Z,13.39
2023-04-01T03:07:40.700Z,13.33
2023-04-01T03:10:10.135Z,13.33
2023-04-01T03:12:39.331Z,13.37
2023-04-01T03:15:11.484Z,13.38
2023-04-01T03:17:40.891Z,13.37
2023-04-01T03:20:12.077Z,13.39
2023-04-01T03:22:42.976Z,13.44
2023-04-01T03:25:12.395Z,13.45
2023-04-01T03:27:41.529Z,13.47
2023-04-01T03:30:11.149Z,13.46
2023-04-01T03:32:39.809Z,13.47
2023-04-01T03:35:10.936Z,13.40
2023-04-01T03:37:39.886Z,13.24
2023-04-01T03:40:09.265Z,12.98
2023-04-01T03:42:38.158Z,12.90
2023-04-01T03:45:07.478Z,12.87
2023-04-01T03:47:36.972Z,12.78
2023-04-01T03:50:07.240Z,12.70
2023-04-01T03:52:36.163Z,12.70
2023-04-01T03:55:05.518Z,12.66
2023-04-01T03:57:34.708Z,12.53
2023-04-01T04:00:04.632Z,12.41
2023-04-01T04:02:33.542Z,12.37
2023-04-01T04:05:03.165Z,12.35
2023-04-01T04:07:32.398Z,12.35
2023-04-01T04:10:01.496Z,12.33
2023-04-01T04:12:30.471Z,12.40
2023-04-01T04:14:59.670Z,12.49
2023-04-01T04:17:28.647Z,12.55
2023-04-01T04:19:57.678Z,12.59
2023-04-01T04:22:27.400Z,12.62
2023-04-01T04:24:56.415Z,12.65
2023-04-01T04:27:25.824Z,12.53
2023-04-01T04:29:55.185Z,12.36
2023-04-01T04:32:24.310Z,12.16
2023-04-01T04:34:53.309Z,11.95
2023-04-01T04:37:22.593Z,11.82
2023-04-01T04:39:51.546Z,11.77
2023-04-01T04:42:20.338Z,11.73
2023-04-01T04:44:49.427Z,11.67
2023-04-01T04:47:18.736Z,11.65
2023-04-01T04:49:47.987Z,11.52
2023-04-01T04:52:17.211Z,11.47
2023-04-01T04:54:46.491Z,11.43
2023-04-01T04:57:16.617Z,11.38
2023-04-01T04:59:45.619Z,11.40
2023-04-01T05:02:14.788Z,11.40
2023-04-01T05:04:44.481Z,11.43
2023-04-01T05:07:13.795Z,11.47
2023-04-01T05:09:43.009Z,11.50
2023-04-01T05:12:14.741Z,11.47
2023-04-01T05:14:43.914Z,11.38
2023-04-01T05:17:15.308Z,11.30
2023-04-01T05:19:45.390Z,11.24
2023-04-01T05:22:14.862Z,11.26
2023-04-01T05:24:44.091Z,11.33
2023-04-01T05:27:13.149Z,11.38
2023-04-01T05:29:42.894Z,11.35
2023-04-01T05:32:13.287Z,11.31
2023-04-01T05:34:43.082Z,11.24
2023-04-01T05:37:12.346Z,11.23
2023-04-01T05:39:41.931Z,11.38
2023-04-01T05:42:11.267Z,11.53
2023-04-01T05:44:40.506Z,11.60
2023-04-01T05:47:10.429Z,11.71
2023-04-01T05:49:39.584Z,11.79
2023-04-01T05:52:09.840Z,11.94
2023-04-01T05:54:39.310Z,12.04
2023-04-01T05:57:09.006Z,12.11
2023-04-01T05:59:39.564Z,12.19
2023-04-01T06:02:11.571Z,12.16
2023-04-01T06:04:42.126Z,12.14
2023-04-01T06:07:20.884Z,12.30
2023-04-01T06:09:50.321Z,12.36
2023-04-01T06:12:44.297Z,12.44
2023-04-01T06:15:19.897Z,12.40
2023-04-01T06:17:59.456Z,12.37
2023-04-01T06:20:46.261Z,12.42
2023-04-01T06:23:25.285Z,12.50
2023-04-01T06:26:04.859Z,12.61
2023-04-01T06:28:48.700Z,12.69
2023-04-01T06:31:49.486Z,12.90
2023-04-01T06:34:40.551Z,13.39
2023-04-01T06:37:13.759Z,14.53
2023-04-01T06:40:07.130Z,14.92
2023-04-01T06:42:55.255Z,15.65
2023-04-01T06:45:37.267Z,16.72
2023-04-01T06:48:13.932Z,17.68
2023-04-01T06:50:55.682Z,18.58
2023-04-01T06:53:56.300Z,19.30
2023-04-01T06:56:30.529Z,20.00
2023-04-01T06:59:16.651Z,20.72
2023-04-01T07:01:56.988Z,21.32
2023-04-01T07:04:40.407Z,22.17
2023-04-01T07:07:39.925Z,22.77
2023-04-01T07:10:24.701Z,23.36
2023-04-01T07:12:59.103Z,23.96
2023-04-01T07:15:35.151Z,24.73
2023-04-01T07:18:12.727Z,25.29
2023-04-01T07:20:41.859Z,25.82
2023-04-01T07:23:27.015Z,26.14
2023-04-01T07:26:19.548Z,26.34
2023-04-01T07:28:50.579Z,26.67
2023-04-01T07:31:57.485Z,26.97
2023-04-01T07:34:43.773Z,27.11
2023-04-01T07:37:49.998Z,27.53
2023-04-01T07:40:50.153Z,27.76
2023-04-01T07:44:12.516Z,27.92
2023-04-01T07:46:57.288Z,27.97
2023-04-01T07:49:46.520Z,28.54
2023-04-01T07:52:48.034Z,28.94
2023-04-01T07:55:30.351Z,29.12
2023-04-01T07:58:16.446Z,29.67
2023-04-01T08:01:08.123Z,29.87
2023-04-01T08:04:08.991Z,29.92
2023-04-01T08:06:51.528Z,30.10
2023-04-01T08:09:29.134Z,30.45
2023-04-01T08:12:15.670Z,30.76
2023-04-01T08:14:54.788Z,30.93
2023-04-01T08:17:32.412Z,31.26
2023-04-01T08:20:16.065Z,31.38
2023-04-01T08:22:53.081Z,31.62
2023-04-01T08:25:28.223Z,31.39
2023-04-01T08:28:21.619Z,31.39
2023-04-01T08:30:58.435Z,31.93
2023-04-01T08:33:33.349Z,32.60
2023-04-01T08:36:17.595Z,33.39
2023-04-01T08:38:56.914Z,33.77
2023-04-01T08:41:42.254Z,33.70
2023-04-01T08:44:44.297Z,33.89
2023-04-01T08:47:29.134Z,34.63
2023-04-01T08:50:28.968Z,35.31
2023-04-01T08:53:34.861Z,35.76
2023-04-01T08:56:25.106Z,35.91
2023-04-01T08:59:25.546Z,35.75
2023-04-01T09:02:17.710Z,35.60
2023-04-01T09:05:08.585Z,36.08
2023-04-01T09:07:55.134Z,36.67
2023-04-01T09:10:49.164Z,37.26
2023-04-01T09:13:39.331Z,36.87
2023-04-01T09:16:24.521Z,37.22
2023-04-01T09:19:15.090Z,37.49
2023-04-01T09:22:05.744Z,37.20
2023-04-01T09:25:00.606Z,37.53
2023-04-01T09:27:38.324Z,37.75
2023-04-01T09:30:38.268Z,38.31
2023-04-01T09:33:32.265Z,38.84
2023-04-01T09:36:19.865Z,39.51
2023-04-01T09:39:00.978Z,39.59
2023-04-01T09:41:41.496Z,39.67
2023-04-01T09:44:29.484Z,39.37
2023-04-01T09:47:26.499Z,39.78
2023-04-01T09:50:29.199Z,40.42
2023-04-01T09:53:16.979Z,40.37
2023-04-01T09:56:25.662Z,40.52
2023-04-01T09:59:15.572Z,40.57
2023-04-01T10:02:31.446Z,40.83
2023-04-01T10:05:21.930Z,41.04
2023-04-01T10:08:19.220Z,41.33
2023-04-01T10:11:29.427Z,40.74
2023-04-01T10:14:17.881Z,40.75
2023-04-01T10:17:10.633Z,40.91
2023-04-01T10:19:45.462Z,38.93
2023-04-01T10:22:43.018Z,37.51
2023-04-01T10:25:36.855Z,36.19
2023-04-01T10:28:36.170Z,34.80
2023-04-01T10:31:24.431Z,33.54
2023-04-01T10:34:31.705Z,33.60
2023-04-01T10:37:10.115Z,35.21
2023-04-01T10:40:05.422Z,36.50
2023-04-01T10:42:34.596Z,37.42
2023-04-01T10:45:27.135Z,38.48
2023-04-01T10:48:45.917Z,39.12
2023-04-01T10:51:53.364Z,37.31
2023-04-01T10:54:50.176Z,35.55
2023-04-01T10:57:53.448Z,34.43
2023-04-01T11:00:44.757Z,35.57
2023-04-01T11:03:22.558Z,37.01
2023-04-01T11:06:26.197Z,38.37
2023-04-01T11:09:20.035Z,39.10
2023-04-01T11:12:11.331Z,39.26
2023-04-01T11:15:00.025Z,39.18
2023-04-01T11:18:04.347Z,38.63
2023-04-01T11:20:58.459Z,38.66
2023-04-01T11:23:37.116Z,39.33
2023-04-01T11:26:14.674Z,39.82
2023-04-01T11:29:21.784Z,40.17
2023-04-01T11:32:17.196Z,40.36
2023-04-01T11:34:58.475Z,40.13
2023-04-01T11:37:59.028Z,40.38
2023-04-01T11:40:30.705Z,40.96
2023-04-01T11:43:39.701Z,40.91
2023-04-01T11:46:43.459Z,40.43
2023-04-01T11:49:46.895Z,39.83
2023-04-01T11:52:41.462Z,37.09
2023-04-01T11:55:32.678Z,34.95
2023-04-01T11:58:43.940Z,33.29
2023-04-01T12:01:36.629Z,31.75
2023-04-01T12:04:30.319Z,30.88
2023-04-01T12:07:17.229Z,30.75
2023-04-01T12:10:18.347Z,30.95
2023-04-01T12:13:03.451Z,30.65
2023-04-01T12:16:00.463Z,32.43
2023-04-01T12:18:35.951Z,34.03
2023-04-01T12:21:38.203Z,35.22
2023-04-01T12:24:41.770Z,35.91
2023-04-01T12:27:32.787Z,36.52
2023-04-01T12:30:06.145Z,37.29
2023-04-01T12:32:51.175Z,38.31
2023-04-01T12:35:29.557Z,39.56
2023-04-01T12:38:32.709Z,40.33
2023-04-01T12:41:09.823Z,40.34
2023-04-01T12:43:51.239Z,39.89
2023-04-01T12:46:44.000Z,40.16
2023-04-01T12:49:47.060Z,40.12
2023-04-01T12:52:42.961Z,39.86
2023-04-01T12:55:28.700Z,39.78
2023-04-01T12:58:08.806Z,40.36
2023-04-01T13:01:04.069Z,40.82
2023-04-01T13:03:56.815Z,40.17
2023-04-01T13:06:55.769Z,38.01
2023-04-01T13:09:26.032Z,35.96
2023-04-01T13:12:20.461Z,34.76
2023-04-01T13:15:11.786Z,33.87
2023-04-01T13:17:50.438Z,33.70
2023-04-01T13:20:38.673Z,33.27
2023-04-01T13:23:38.729Z,32.18
2023-04-01T13:26:25.035Z,31.26
2023-04-01T13:29:19.378Z,31.92
2023-04-01T13:32:05.335Z,31.41
2023-04-01T13:34:54.806Z,30.76
2023-04-01T13:37:47.236Z,30.88
2023-04-01T13:41:01.723Z,31.36
2023-04-01T13:43:52.059Z,32.10
2023-04-01T13:46:55.800Z,32.30
2023-04-01T13:49:50.027Z,31.62
2023-04-01T13:52:20.180Z,30.65
2023-04-01T13:55:21.533Z,30.24
2023-04-01T13:58:06.733Z,29.48
2023-04-01T14:00:46.001Z,29.94
2023-04-01T14:03:40.665Z,30.09
2023-04-01T14:06:33.414Z,29.44
2023-04-01T14:09:05.652Z,28.72
2023-04-01T14:11:53.946Z,28.29
2023-04-01T14:14:34.396Z,27.90
2023-04-01T14:17:40.962Z,27.74
2023-04-01T14:20:53.358Z,27.47
2023-04-01T14:23:41.254Z,27.17
2023-04-01T14:26:47.598Z,26.93
2023-04-01T14:29:17.162Z,26.87
2023-04-01T14:32:14.311Z,27.76
2023-04-01T14:34:57.382Z,28.74
2023-04-01T14:37:50.656Z,29.44
2023-04-01T14:40:35.480Z,30.20
2023-04-01T14:43:26.193Z,30.67
2023-04-01T14:46:32.388Z,31.04
2023-04-01T14:49:06.153Z,31.00
2023-04-01T14:51:40.101Z,30.36
2023-04-01T14:54:53.645Z,29.60
2023-04-01T14:57:26.471Z,28.54
2023-04-01T15:00:08.006Z,27.92
2023-04-01T15:03:05.323Z,27.22
2023-04-01T15:06:12.304Z,26.43
2023-04-01T15:09:35.746Z,25.70
2023-04-01T15:12:10.266Z,25.15
2023-04-01T15:15:13.986Z,24.94
2023-04-01T15:18:01.398Z,24.79
2023-04-01T15:20:49.430Z,24.62
2023-04-01T15:23:28.338Z,24.44
2023-04-01T15:26:34.636Z,24.55
2023-04-01T15:29:49.335Z,24.68
2023-04-01T15:32:47.397Z,24.76
2023-04-01T15:35:38.436Z,24.75
2023-04-01T15:38:32.273Z,24.74
2023-04-01T15:41:09.934Z,24.56
2023-04-01T15:43:44.199Z,24.45
2023-04-01T15:46:38.044Z,24.23
2023-04-01T15:49:30.311Z,23.81
2023-04-01T15:52:05.765Z,23.41
2023-04-01T15:54:47.582Z,23.10
2023-04-01T15:57:40.968Z,23.08
2023-04-01T16:00:28.286Z,23.15
2023-04-01T16:03:20.597Z,23.43
2023-04-01T16:06:29.309Z,23.69
2023-04-01T16:09:12.384Z,23.75
2023-04-01T16:12:23.790Z,23.60
2023-04-01T16:15:00.330Z,23.19
2023-04-01T16:17:58.557Z,22.82
2023-04-01T16:20:52.387Z,22.56
2023-04-01T16:23:30.318Z,22.28
2023-04-01T16:26:25.721Z,22.13
2023-04-01T16:29:20.939Z,21.87
2023-04-01T16:32:19.440Z,21.62
2023-04-01T16:35:19.788Z,21.34
2023-04-01T16:37:55.015Z,21.23
2023-04-01T16:40:26.731Z,21.12
2023-04-01T16:43:08.542Z,21.03
2023-04-01T16:45:41.758Z,20.83
2023-04-01T16:48:17.354Z,20.69
2023-04-01T16:50:57.030Z,20.51
2023-04-01T16:53:48.772Z,20.41
2023-04-01T16:56:30.456Z,20.17
2023-04-01T16:59:09.094Z,20.02
2023-04-01T17:01:49.887Z,19.88
2023-04-01T17:04:36.302Z,19.65
2023-04-01T17:07:38.106Z,19.50
2023-04-01T17:10:08.558Z,19.34
2023-04-01T17:13:09.771Z,19.18
2023-04-01T17:16:07.348Z,19.05
2023-04-01T17:19:32.658Z,19.03
2023-04-01T17:22:39.135Z,18.96
2023-04-01T17:25:39.985Z,18.85
2023-04-01T17:28:29.675Z,18.72
2023-04-01T17:31:25.588Z,18.69
2023-04-01T17:34:39.130Z,18.65
2023-04-01T17:37:16.123Z,18.56
2023-04-01T17:39:57.479Z,18.57
2023-04-01T17:43:02.188Z,18.49
2023-04-01T17:45:49.603Z,18.36
2023-04-01T17:48:38.086Z,18.32
2023-04-01T17:51:23.545Z,18.27
2023-04-01T17:54:07.823Z,18.23
2023-04-01T17:56:43.896Z,18.19
2023-04-01T17:59:39.040Z,18.14
2023-04-01T18:02:07.948Z,18.05
2023-04-01T18:04:59.709Z,18.08
2023-04-01T18:07:57.897Z,18.04
2023-04-01T18:11:01.392Z,17.98
2023-04-01T18:13:49.761Z,17.73
2023-04-01T18:16:52.697Z,17.59
2023-04-01T18:19:30.857Z,17.36
2023-04-01T18:22:25.064Z,17.34
2023-04-01T18:25:14.755Z,17.29
2023-04-01T18:28:40.421Z,17.24
2023-04-01T18:31:46.824Z,17.08
2023-04-01T18:34:46.444Z,16.97
2023-04-01T18:37:41.902Z,16.91
2023-04-01T18:40:47.087Z,16.88
2023-04-01T18:43:41.683Z,16.64
2023-04-01T18:46:26.269Z,16.54
2023-04-01T18:48:57.409Z,16.45
2023-04-01T18:52:18.539Z,16.38
2023-04-01T18:55:21.504Z,16.26
2023-04-01T18:58:07.856Z,16.17
2023-04-01T19:00:53.818Z,16.03
2023-04-01T19:03:45.163Z,15.92
2023-04-01T19:06:28.243Z,15.82
2023-04-01T19:09:14.429Z,15.72
2023-04-01T19:11:57.076Z,15.64
2023-04-01T19:14:50.310Z,15.54
2023-04-01T19:17:39.234Z,15.37
2023-04-01T19:20:27.546Z,15.26
2023-04-01T19:23:19.220Z,15.14
2023-04-01T19:25:56.962Z,14.99
2023-04-01T19:28:46.649Z,14.94
2023-04-01T19:31:34.527Z,14.81
2023-04-01T19:34:29.539Z,14.73
2023-04-01T19:37:21.667Z,14.71
2023-04-01T19:40:33.039Z,14.75
2023-04-01T19:43:35.198Z,14.69
2023-04-01T19:46:31.321Z,14.66
2023-04-01T19:49:22.256Z,14.65
2023-04-01T19:52:16.312Z,14.66
2023-04-01T19:55:00.546Z,14.65
2023-04-01T19:57:53.268Z,14.64
2023-04-01T20:00:49.194Z,14.53
2023-04-01T20:03:42.259Z,14.45
2023-04-01T20:06:19.183Z,14.41
2023-04-01T20:08:58.851Z,14.26
2023-04-01T20:11:40.572Z,14.02
2023-04-01T20:14:31.589Z,13.90
2023-04-01T20:17:28.584Z,13.72
2023-04-01T20:20:05.275Z,13.57
2023-04-01T20:23:08.056Z,13.52
2023-04-01T20:25:40.665Z,13.42
2023-04-01T20:28:35.885Z,13.33
2023-04-01T20:31:46.950Z,13.23
2023-04-01T20:34:24.241Z,13.14
2023-04-01T20:37:02.469Z,13.14
2023-04-01T20:39:56.458Z,13.10
2023-04-01T20:42:31.232Z,13.03
2023-04-01T20:45:18.456Z,13.05
2023-04-01T20:48:24.861Z,13.10
2023-04-01T20:50:54.752Z,13.11
2023-04-01T20:53:51.679Z,13.14
2023-04-01T20:56:32.610Z,12.96
2023-04-01T20:59:21.074Z,12.79
2023-04-01T21:02:16.874Z,12.65
2023-04-01T21:05:24.066Z,12.56
2023-04-01T21:08:09.063Z,12.52
2023-04-01T21:11:07.020Z,12.58
2023-04-01T21:13:55.066Z,12.60
2023-04-01T21:16:33.668Z,12.54
2023-04-01T21:19:03.343Z,12.39
2023-04-01T21:22:01.031Z,12.29
2023-04-01T21:25:15.122Z,12.04
2023-04-01T21:28:15.664Z,11.84
2023-04-01T21:31:00.413Z,11.74
2023-04-01T21:33:52.233Z,11.72
2023-04-01T21:36:31.797Z,11.69
2023-04-01T21:39:26.262Z,11.73
2023-04-01T21:42:26.562Z,11.73
2023-04-01T21:45:07.774Z,11.49
2023-04-01T21:48:02.074Z,11.40
2023-04-01T21:51:02.366Z,11.31
2023-04-01T21:53:37.861Z,11.26
2023-04-01T21:56:35.873Z,11.25
2023-04-01T21:59:27.681Z,11.18
2023-04-01T22:02:04.972Z,11.13
2023-04-01T22:04:40.050Z,11.09
2023-04-01T22:07:21.867Z,11.08
2023-04-01T22:10:02.657Z,11.02
2023-04-01T22:13:02.317Z,10.98
2023-04-01T22:15:59.654Z,10.93
2023-04-01T22:18:36.252Z,10.89
2023-04-01T22:21:14.564Z,10.96
2023-04-01T22:23:55.930Z,10.97
2023-04-01T22:26:36.828Z,10.97
2023-04-01T22:29:15.415Z,10.92
2023-04-01T22:32:18.641Z,10.92
2023-04-01T22:35:09.526Z,10.93
2023-04-01T22:37:58.008Z,10.94
2023-04-01T22:40:51.293Z,10.84
2023-04-01T22:43:32.614Z,10.72
2023-04-01T22:46:29.254Z,10.73
2023-04-01T22:49:24.144Z,10.74
2023-04-01T22:52:32.923Z,10.69
2023-04-01T22:55:07.991Z,10.60
2023-04-01T22:57:59.532Z,10.59
2023-04-01T23:00:46.261Z,10.49
2023-04-01T23:03:19.599Z,10.48
2023-04-01T23:06:01.709Z,10.49
2023-04-01T23:09:02.610Z,10.37
2023-04-01T23:11:54.075Z,10.24
2023-04-01T23:14:24.932Z,10.26
2023-04-01T23:16:59.937Z,10.27
2023-04-01T23:19:47.757Z,10.26
2023-04-01T23:22:39.598Z,10.26
2023-04-01T23:25:22.792Z,10.30
2023-04-01T23:28:18.583Z,10.32
2023-04-01T23:30:49.683Z,10.31
2023-04-01T23:33:21.780Z,10.33
2023-04-01T23:35:52.274Z,10.31
2023-04-01T23:38:24.278Z,10.31
2023-04-01T23:40:56.974Z,10.29
2023-04-01T23:43:29.975Z,10.30
2023-04-01T23:46:05.153Z,10.30
2023-04-01T23:48:42.563Z,10.29
2023-04-01T23:51:31.282Z,10.26
2023-04-01T23:54:12.246Z,10.32
2023-04-01T23:56:47.276Z,10.30
2023-04-01T23:59:30.999Z,10.25
